Weather observations for the past three days for
Stampede Pass
| Date | Time (pdt) | Wind (kph) | Vis. (km) | Weather | Sky Cond. | Temperature (ºC) | Relative Humidity | Wind Chill (°C) | Heat Index (°C) | Pressure | Precipitation (cm) | ||||||
|---|---|---|---|---|---|---|---|---|---|---|---|---|---|---|---|---|---|
| Air | Dwpt | 6 hour | altimeter (cm) | sea level (mb) | 1 hr | 3 hr | 6 hr | ||||||||||
| Max. | Min. | ||||||||||||||||
| 02 | 03:56 | Calm | 0.80 | Fog | VV002 | 8.3 | 8.3 | 100% | 75.77 | 1011.3 | |||||||
| 02 | 02:56 | Calm | 0.40 | Fog | VV002 | 8.3 | 8.3 | 100% | 75.79 | 1009.6 | |||||||
| 02 | 01:56 | Calm | 0.40 | Fog | VV002 | 8.3 | 8.3 | 100% | 75.79 | 1009.1 | |||||||
| 02 | 00:56 | Calm | 0.40 | Fog | VV002 | 8.9 | 8.9 | 100% | 75.84 | 1009.6 | |||||||
| 01 | 23:56 | Calm | 1.21 | Fog/Mist | BKN002 OVC006 | 8.9 | 8.9 | 100% | 75.9 | 1010.5 | |||||||
| 01 | 22:56 | Calm | 0.40 | Fog | VV002 | 8.9 | 8.9 | 9.4 | 8.9 | 100% | 75.9 | 1010.8 | 0.05 | ||||
| 01 | 21:56 | Calm | 4.83 | Fog/Mist | OVC002 | 8.9 | 8.9 | 100% | 75.92 | 1011.0 | |||||||
| 01 | 20:56 | Calm | 1.61 | Fog/Mist | BKN002 OVC008 | 8.9 | 8.9 | 100% | 75.92 | 1011.2 | |||||||
| 01 | 19:56 | Calm | 0.40 | Light Rain Fog | VV001 | 9.4 | 9.4 | 100% | 75.9 | 1012.7 | 0.05 | 0.05 | |||||
| 01 | 18:56 | Calm | 0.24 | Fog | VV002 | 9.4 | 9.4 | 100% | 75.9 | 1012.9 | |||||||
| 01 | 17:56 | Calm | 0.40 | Fog | VV002 | 9.4 | 9.4 | 100% | 75.87 | 1010.7 | |||||||
| 01 | 16:56 | Calm | 11.27 | Overcast | BKN003 OVC011 | 10.6 | 10 | 16.1 | 10.6 | 96% | 75.9 | 1010.4 | |||||
| 01 | 15:56 | Calm | 16.09 | Overcast | BKN005 BKN010 OVC014 | 11.7 | 10 | 89% | 75.84 | 1009.6 | |||||||
| 01 | 14:56 | Calm | 16.09 | Mostly Cloudy | BKN007 | 12.8 | 10.6 | 87% | 75.84 | 1009.2 | |||||||
| 01 | 13:56 | Calm | 16.09 | Fair | CLR | 15 | 11.1 | 78% | 75.84 | 1009.0 | |||||||
| 01 | 12:56 | Calm | 16.09 | Fair | CLR | 16.1 | 11.7 | 75% | 75.87 | 1009.3 | |||||||
| 01 | 11:56 | Calm | 16.09 | Fair | CLR | 15.6 | 10.6 | 72% | 75.87 | 1009.3 | |||||||
| 01 | 10:56 | Calm | 16.09 | Fair | CLR | 13.3 | 10 | 13.3 | 10 | 81% | 75.87 | 1009.7 | |||||
| 01 | 08:56 | Calm | 16.09 | Fair | CLR | 11.7 | 10 | 89% | 75.9 | 1010.0 | |||||||
| 01 | 07:56 | Calm | 16.09 | Fair | CLR | 10.6 | 8.9 | 89% | 75.9 | 1010.2 | |||||||
| 01 | 06:56 | Calm | 16.09 | Fair | CLR | 10.6 | 8.3 | 86% | 75.9 | 1010.0 | |||||||
| 01 | 05:56 | Calm | 16.09 | Fair | CLR | 11.1 | 7.8 | 80% | 75.9 | 1009.6 | |||||||
| 01 | 04:56 | Calm | 16.09 | Fair | CLR | 12.2 | 6.7 | 16.1 | 12.2 | 69% | 75.9 | 1009.4 | |||||
| 01 | 03:56 | Calm | 16.09 | Fair | CLR | 13.9 | 3.3 | 49% | 75.9 | 1008.9 | |||||||
| 01 | 02:56 | Calm | 16.09 | Fair | CLR | 15 | 3.3 | 46% | 75.9 | 1009.0 | |||||||
| 01 | 01:56 | Calm | 16.09 | Fair | CLR | 14.4 | 3.3 | 48% | 75.95 | 1009.6 | |||||||
| 01 | 00:56 | Calm | 16.09 | Fair | CLR | 13.3 | 3.9 | 53% | 75.95 | 1010.1 | |||||||
| 31 | 23:56 | Calm | 16.09 | Fair | CLR | 13.9 | 3.9 | 51% | 75.95 | 1010.2 | |||||||
| 31 | 21:56 | Calm | 16.09 | Fair | CLR | 15 | 3.3 | 46% | 76 | 1011.2 | |||||||
| 31 | 20:56 | Calm | 16.09 | Fair | CLR | 15.6 | 4.4 | 48% | 76 | 1011.5 | |||||||
| 31 | 19:56 | Calm | 16.09 | Fair | CLR | 16.1 | 4.4 | 46% | 75.97 | 1011.4 | |||||||
| 31 | 18:56 | Calm | 16.09 | Fair | CLR | 17.2 | 5 | 45% | 75.97 | 1011.4 | |||||||
| 31 | 17:56 | Calm | 16.09 | Fair | CLR | 18.9 | 5.6 | 42% | 76 | 1011.4 | |||||||
| 31 | 15:56 | Calm | 16.09 | Fair | CLR | 20 | 6.7 | 42% | 76.05 | 1012.0 | |||||||
| 31 | 14:56 | Calm | 16.09 | Fair | CLR | 20.6 | 7.2 | 42% | 76.07 | 1012.2 | |||||||
| 31 | 13:56 | Calm | 16.09 | Fair | CLR | 19.4 | 7.2 | 45% | 76.12 | 1012.8 | |||||||
| 31 | 12:56 | Calm | 16.09 | Fair | CLR | 18.3 | 7.2 | 49% | 76.15 | 1013.8 | |||||||
| 31 | 11:56 | Calm | 16.09 | Fair | CLR | 16.7 | 7.8 | 56% | 76.2 | 1014.6 | |||||||
| 31 | 10:56 | Calm | 12.87 | Fair | CLR | 14.4 | 7.8 | 14.4 | 6.7 | 65% | 76.23 | 1015.1 | |||||
| 31 | 09:56 | Calm | 12.87 | Fair | CLR | 12.8 | 8.3 | 74% | 76.23 | 1015.5 | |||||||
| 31 | 08:56 | Calm | 9.66 | Fair with Haze | CLR | 11.1 | 8.3 | 83% | 76.25 | 1017.7 | |||||||
| 31 | 07:56 | Calm | 4.83 | Fog/Mist | CLR | 8.3 | 7.8 | 97% | 76.23 | 1016.1 | |||||||
| 31 | 06:56 | Calm | 2.41 | Fog/Mist | CLR | 6.7 | 6.7 | 100% | 76.23 | 1015.8 | |||||||
| 31 | 05:56 | Calm | 2.82 | Fog/Mist | CLR | 7.2 | 6.7 | 97% | 76.2 | 1015.5 | |||||||
| 31 | 04:56 | Calm | 4.83 | Fog/Mist | CLR | 7.2 | 6.7 | 9.4 | 7.2 | 97% | 76.23 | 1017.5 | |||||
| 31 | 03:56 | Calm | 16.09 | Fair | CLR | 7.8 | 6.7 | 93% | 76.25 | 1015.8 | |||||||
| 31 | 02:56 | Calm | 16.09 | Fair | CLR | 8.3 | 6.7 | 90% | 76.28 | 1016.2 | |||||||
| 31 | 01:56 | Calm | 16.09 | Fair | CLR | 8.9 | 6.1 | 83% | 76.33 | 1018.6 | |||||||
| 31 | 00:56 | Calm | 16.09 | Fair | CLR | 7.8 | 6.7 | 93% | 76.33 | 1017.4 | |||||||
| 30 | 23:56 | Calm | 16.09 | Fair | CLR | 8.3 | 6.7 | 90% | 76.38 | 1018.2 | |||||||
| 30 | 22:56 | Calm | 16.09 | Fair | CLR | 8.3 | 6.7 | 12.8 | 7.2 | 90% | 76.43 | 1019.0 | |||||
| 30 | 21:56 | Calm | 16.09 | Fair | CLR | 7.8 | 6.7 | 93% | 76.45 | 1019.5 | |||||||
| 30 | 20:56 | Calm | 16.09 | Fair | CLR | 8.3 | 6.7 | 90% | 76.48 | 1019.6 | |||||||
| 30 | 19:56 | Calm | 16.09 | Mostly Cloudy | BKN018 | 9.4 | 6.7 | 83% | 76.48 | 1019.6 | |||||||
| 30 | 18:56 | Calm | 16.09 | Partly Cloudy | SCT020 | 10.6 | 6.7 | 77% | 76.5 | 1019.8 | |||||||
| 30 | 17:56 | Calm | 16.09 | Mostly Cloudy | BKN022 | 11.1 | 6.7 | 75% | 76.5 | 1020.0 | |||||||
| 30 | 16:56 | Calm | 16.09 | Overcast | OVC023 | 12.8 | 7.2 | 13.3 | 7.8 | 69% | 76.53 | 1019.8 | |||||
| 30 | 15:56 | Calm | 16.09 | Partly Cloudy | SCT022 | 12.8 | 7.2 | 69% | 76.5 | 1019.8 | |||||||
| 30 | 14:56 | Calm | 16.09 | Mostly Cloudy | BKN021 | 12.8 | 6.7 | 67% | 76.53 | 1020.1 | |||||||
| 30 | 13:56 | Calm | 16.09 | Partly Cloudy | FEW019 SCT025 | 10.6 | 6.7 | 77% | 76.56 | 1020.7 | |||||||
| 30 | 12:56 | Calm | 16.09 | Overcast | FEW018 OVC024 | 10 | 6.7 | 80% | 76.56 | 1020.6 | |||||||
| 30 | 11:56 | Calm | 16.09 | Overcast | BKN009 BKN012 OVC027 | 7.8 | 7.2 | 96% | 76.56 | 1020.9 | |||||||
| 30 | 10:56 | Calm | 16.09 | Overcast | BKN004 BKN009 OVC023 | 7.8 | 7.2 | 7.8 | 5.6 | 96% | 76.56 | 1020.8 | |||||
| 30 | 09:56 | Calm | 16.09 | Overcast | BKN003 BKN009 OVC018 | 7.2 | 7.2 | 100% | 76.5 | 1020.4 | |||||||
| 30 | 08:56 | Calm | 1.21 | Fog/Mist | OVC002 | 6.7 | 6.7 | 100% | 76.53 | 1020.5 | |||||||
| 30 | 07:56 | Calm | 0.40 | Fog | VV002 | 5.6 | 5.6 | 100% | 76.5 | 1020.4 | |||||||
| 30 | 06:56 | Calm | 0.40 | Fog | VV002 | 5.6 | 5.6 | 100% | 76.48 | 1020.1 | |||||||
| 30 | 05:56 | Calm | 0.40 | Fog | VV002 | 5.6 | 5.6 | 100% | 76.48 | 1019.9 | |||||||
| 30 | 04:56 | Calm | 0.40 | Fog | VV002 | 5.6 | 5.6 | 6.7 | 5.6 | 100% | 76.48 | 1019.9 | |||||
| Date | Time (pdt) | Wind (kph) | Vis. (km) | Weather | Sky Cond. | Air | Dwpt | Max. | Min. | Relative Humidity | Wind Chill (°C) | Heat Index (°C) | altimeter (cm) | sea level (mb) | 1 hr | 3 hr | 6 hr |
| 6 hour | |||||||||||||||||
| Temperature (ºC) | Pressure | Precipitation (cm) | |||||||||||||||